sensor_id;sensor_type;location;lat;lon;timestamp;pressure;altitude;pressure_sealevel;temperature;humidity
44839;BME280;30576;42.098;24.876;2023-07-09T00:00:46;99873.44;;;23.09;57.42
44839;BME280;30576;42.098;24.876;2023-07-09T00:03:14;99852.47;;;22.99;56.84
44839;BME280;30576;42.098;24.876;2023-07-09T00:05:40;99862.47;;;23.12;57.04
44839;BME280;30576;42.098;24.876;2023-07-09T00:08:07;99858.50;;;23.03;56.84
44839;BME280;30576;42.098;24.876;2023-07-09T00:10:41;99849.53;;;22.89;56.85
44839;BME280;30576;42.098;24.876;2023-07-09T00:13:07;99875.34;;;23.06;56.35
44839;BME280;30576;42.098;24.876;2023-07-09T00:15:33;99847.41;;;22.80;56.78
44839;BME280;30576;42.098;24.876;2023-07-09T00:17:58;99850.53;;;23.01;56.23
44839;BME280;30576;42.098;24.876;2023-07-09T00:20:25;99863.91;;;22.88;56.69
44839;BME280;30576;42.098;24.876;2023-07-09T00:22:51;99845.22;;;22.73;56.58
44839;BME280;30576;42.098;24.876;2023-07-09T00:25:20;99847.22;;;22.55;57.50
44839;BME280;30576;42.098;24.876;2023-07-09T00:27:46;99831.00;;;22.56;56.19
44839;BME280;30576;42.098;24.876;2023-07-09T00:30:20;99844.53;;;22.55;56.55
44839;BME280;30576;42.098;24.876;2023-07-09T00:32:47;99853.66;;;22.66;56.33
44839;BME280;30576;42.098;24.876;2023-07-09T00:35:13;99797.00;;;22.26;57.18
44839;BME280;30576;42.098;24.876;2023-07-09T00:37:42;99869.59;;;22.69;56.34
44839;BME280;30576;42.098;24.876;2023-07-09T00:40:14;99842.31;;;22.47;56.75
44839;BME280;30576;42.098;24.876;2023-07-09T00:42:44;99839.53;;;22.48;56.32
44839;BME280;30576;42.098;24.876;2023-07-09T00:45:21;99845.69;;;22.65;55.58
44839;BME280;30576;42.098;24.876;2023-07-09T00:48:03;99858.66;;;22.73;55.67
44839;BME280;30576;42.098;24.876;2023-07-09T00:50:49;99838.59;;;22.49;56.12
44839;BME280;30576;42.098;24.876;2023-07-09T00:53:26;99798.69;;;22.27;55.67
44839;BME280;30576;42.098;24.876;2023-07-09T00:56:02;99808.00;;;22.22;56.10
44839;BME280;30576;42.098;24.876;2023-07-09T00:58:31;99856.22;;;22.53;56.00
44839;BME280;30576;42.098;24.876;2023-07-09T01:01:04;99833.69;;;22.42;55.85
44839;BME280;30576;42.098;24.876;2023-07-09T01:03:40;99836.75;;;22.35;55.32
44839;BME280;30576;42.098;24.876;2023-07-09T01:06:08;99859.19;;;22.49;55.29
44839;BME280;30576;42.098;24.876;2023-07-09T01:08:36;99856.41;;;22.50;54.97
44839;BME280;30576;42.098;24.876;2023-07-09T01:11:03;99845.66;;;22.36;55.72
44839;BME280;30576;42.098;24.876;2023-07-09T01:13:30;99864.19;;;22.55;55.25
44839;BME280;30576;42.098;24.876;2023-07-09T01:15:58;99833.38;;;22.32;55.55
44839;BME280;30576;42.098;24.876;2023-07-09T01:18:24;99843.06;;;22.34;55.41
44839;BME280;30576;42.098;24.876;2023-07-09T01:20:51;99865.66;;;22.46;55.62
44839;BME280;30576;42.098;24.876;2023-07-09T01:23:18;99857.19;;;22.38;55.68
44839;BME280;30576;42.098;24.876;2023-07-09T01:25:50;99848.53;;;22.47;55.65
44839;BME280;30576;42.098;24.876;2023-07-09T01:28:18;99881.09;;;22.43;55.98
44839;BME280;30576;42.098;24.876;2023-07-09T01:30:44;99800.19;;;21.88;56.60
44839;BME280;30576;42.098;24.876;2023-07-09T01:33:09;99824.47;;;22.01;56.81
44839;BME280;30576;42.098;24.876;2023-07-09T01:35:37;99846.75;;;22.17;56.38
44839;BME280;30576;42.098;24.876;2023-07-09T01:38:06;99844.63;;;22.08;56.66
44839;BME280;30576;42.098;24.876;2023-07-09T01:40:32;99864.72;;;22.17;56.87
44839;BME280;30576;42.098;24.876;2023-07-09T01:42:59;99858.72;;;22.12;56.68
44839;BME280;30576;42.098;24.876;2023-07-09T01:45:27;99826.94;;;21.90;56.48
44839;BME280;30576;42.098;24.876;2023-07-09T01:47:54;99836.28;;;21.98;56.61
44839;BME280;30576;42.098;24.876;2023-07-09T01:50:20;99868.13;;;22.05;56.88
44839;BME280;30576;42.098;24.876;2023-07-09T01:52:46;99834.09;;;21.75;57.26
44839;BME280;30576;42.098;24.876;2023-07-09T01:55:15;99856.22;;;21.94;56.83
44839;BME280;30576;42.098;24.876;2023-07-09T01:57:42;99840.34;;;21.75;57.07
44839;BME280;30576;42.098;24.876;2023-07-09T02:00:13;99874.25;;;21.92;56.63
44839;BME280;30576;42.098;24.876;2023-07-09T02:02:40;99831.34;;;21.60;57.05
44839;BME280;30576;42.098;24.876;2023-07-09T02:05:08;99872.88;;;21.85;56.89
44839;BME280;30576;42.098;24.876;2023-07-09T02:07:34;99855.56;;;21.75;57.58
44839;BME280;30576;42.098;24.876;2023-07-09T02:10:00;99846.25;;;21.66;57.02
44839;BME280;30576;42.098;24.876;2023-07-09T02:12:25;99847.47;;;21.60;57.18
44839;BME280;30576;42.098;24.876;2023-07-09T02:14:51;99896.84;;;21.88;57.13
44839;BME280;30576;42.098;24.876;2023-07-09T02:17:16;99882.13;;;21.79;56.99
44839;BME280;30576;42.098;24.876;2023-07-09T02:19:42;99861.00;;;21.73;56.49
44839;BME280;30576;42.098;24.876;2023-07-09T02:22:09;99904.13;;;21.86;56.36
44839;BME280;30576;42.098;24.876;2023-07-09T02:24:35;99867.00;;;21.78;56.22
44839;BME280;30576;42.098;24.876;2023-07-09T02:27:04;99887.41;;;21.81;56.58
44839;BME280;30576;42.098;24.876;2023-07-09T02:29:30;99868.63;;;21.81;55.90
44839;BME280;30576;42.098;24.876;2023-07-09T02:31:58;99901.09;;;21.92;56.37
44839;BME280;30576;42.098;24.876;2023-07-09T02:34:25;99880.69;;;21.74;56.21
44839;BME280;30576;42.098;24.876;2023-07-09T02:36:52;99887.00;;;21.73;56.70
44839;BME280;30576;42.098;24.876;2023-07-09T02:39:19;99921.69;;;21.92;56.32
44839;BME280;30576;42.098;24.876;2023-07-09T02:41:44;99905.53;;;21.77;56.54
44839;BME280;30576;42.098;24.876;2023-07-09T02:44:10;99906.06;;;21.68;56.61
44839;BME280;30576;42.098;24.876;2023-07-09T02:46:36;99926.91;;;21.79;56.53
44839;BME280;30576;42.098;24.876;2023-07-09T02:49:03;99904.41;;;21.66;56.76
44839;BME280;30576;42.098;24.876;2023-07-09T02:51:29;99888.38;;;21.80;56.22
44839;BME280;30576;42.098;24.876;2023-07-09T02:53:56;99901.38;;;21.88;56.26
44839;BME280;30576;42.098;24.876;2023-07-09T02:56:22;99931.78;;;21.72;56.43
44839;BME280;30576;42.098;24.876;2023-07-09T02:58:52;99915.50;;;21.75;56.34
44839;BME280;30576;42.098;24.876;2023-07-09T03:01:18;99894.47;;;21.36;56.54
44839;BME280;30576;42.098;24.876;2023-07-09T03:03:47;99929.19;;;21.71;56.58
44839;BME280;30576;42.098;24.876;2023-07-09T03:06:12;99927.00;;;21.77;56.22
44839;BME280;30576;42.098;24.876;2023-07-09T03:08:38;99914.97;;;21.85;55.94
44839;BME280;30576;42.098;24.876;2023-07-09T03:11:11;99913.00;;;21.56;56.98
44839;BME280;30576;42.098;24.876;2023-07-09T03:13:37;99920.69;;;21.62;56.03
44839;BME280;30576;42.098;24.876;2023-07-09T03:16:02;99925.22;;;21.62;56.20
44839;BME280;30576;42.098;24.876;2023-07-09T03:18:28;99949.78;;;21.70;57.32
44839;BME280;30576;42.098;24.876;2023-07-09T03:20:53;99933.69;;;21.70;56.63
44839;BME280;30576;42.098;24.876;2023-07-09T03:23:19;99932.06;;;21.68;56.50
44839;BME280;30576;42.098;24.876;2023-07-09T03:25:44;99934.88;;;21.80;56.59
44839;BME280;30576;42.098;24.876;2023-07-09T03:28:11;99929.19;;;21.71;55.66
44839;BME280;30576;42.098;24.876;2023-07-09T03:30:42;99938.88;;;21.73;56.18
44839;BME280;30576;42.098;24.876;2023-07-09T03:33:09;99949.53;;;21.75;57.50
44839;BME280;30576;42.098;24.876;2023-07-09T03:35:35;99941.66;;;21.56;56.26
44839;BME280;30576;42.098;24.876;2023-07-09T03:38:02;99946.09;;;21.57;56.42
44839;BME280;30576;42.098;24.876;2023-07-09T03:40:27;99953.31;;;21.87;55.97
44839;BME280;30576;42.098;24.876;2023-07-09T03:42:53;99941.72;;;21.86;55.84
44839;BME280;30576;42.098;24.876;2023-07-09T03:45:18;99963.84;;;22.06;55.81
44839;BME280;30576;42.098;24.876;2023-07-09T03:47:44;99929.47;;;22.12;55.28
44839;BME280;30576;42.098;24.876;2023-07-09T03:50:09;99925.88;;;22.12;55.48
44839;BME280;30576;42.098;24.876;2023-07-09T03:52:35;99966.00;;;22.31;56.00
44839;BME280;30576;42.098;24.876;2023-07-09T03:55:01;99970.84;;;22.24;55.86
44839;BME280;30576;42.098;24.876;2023-07-09T03:57:30;99974.16;;;22.13;55.62
44839;BME280;30576;42.098;24.876;2023-07-09T03:59:55;99985.16;;;22.25;55.24
44839;BME280;30576;42.098;24.876;2023-07-09T04:02:21;99945.84;;;22.08;55.96
44839;BME280;30576;42.098;24.876;2023-07-09T04:04:47;99929.72;;;22.08;55.25
44839;BME280;30576;42.098;24.876;2023-07-09T04:07:13;99951.13;;;22.40;55.07
44839;BME280;30576;42.098;24.876;2023-07-09T04:09:38;99944.16;;;22.21;55.73
44839;BME280;30576;42.098;24.876;2023-07-09T04:12:04;99943.97;;;22.55;54.76
44839;BME280;30576;42.098;24.876;2023-07-09T04:14:30;99948.97;;;22.61;54.45
44839;BME280;30576;42.098;24.876;2023-07-09T04:16:56;99974.84;;;22.92;54.60
44839;BME280;30576;42.098;24.876;2023-07-09T04:19:23;99961.50;;;22.76;54.82
44839;BME280;30576;42.098;24.876;2023-07-09T04:21:48;99984.66;;;22.93;54.36
44839;BME280;30576;42.098;24.876;2023-07-09T04:24:16;99957.28;;;22.86;54.41
44839;BME280;30576;42.098;24.876;2023-07-09T04:26:42;99978.53;;;23.20;53.90
44839;BME280;30576;42.098;24.876;2023-07-09T04:29:07;99999.09;;;23.06;54.15
44839;BME280;30576;42.098;24.876;2023-07-09T04:31:32;99971.91;;;23.26;53.87
44839;BME280;30576;42.098;24.876;2023-07-09T04:33:58;99984.84;;;23.04;53.28
44839;BME280;30576;42.098;24.876;2023-07-09T04:36:23;99988.72;;;23.15;53.92
44839;BME280;30576;42.098;24.876;2023-07-09T04:38:50;99994.94;;;23.58;53.85
44839;BME280;30576;42.098;24.876;2023-07-09T04:41:15;99987.94;;;23.41;52.92
44839;BME280;30576;42.098;24.876;2023-07-09T04:43:41;99991.97;;;23.49;52.37
44839;BME280;30576;42.098;24.876;2023-07-09T04:46:07;99996.59;;;23.32;52.14
44839;BME280;30576;42.098;24.876;2023-07-09T04:48:32;99983.72;;;23.37;51.94
44839;BME280;30576;42.098;24.876;2023-07-09T04:50:58;99989.63;;;23.57;52.47
44839;BME280;30576;42.098;24.876;2023-07-09T04:53:25;99996.75;;;23.87;51.43
44839;BME280;30576;42.098;24.876;2023-07-09T04:55:51;100003.84;;;23.73;50.37
44839;BME280;30576;42.098;24.876;2023-07-09T04:58:17;100016.34;;;23.89;50.62
44839;BME280;30576;42.098;24.876;2023-07-09T05:00:44;99986.53;;;23.92;49.32
44839;BME280;30576;42.098;24.876;2023-07-09T05:03:10;99984.53;;;24.08;49.83
44839;BME280;30576;42.098;24.876;2023-07-09T05:05:42;99978.53;;;24.18;48.82
44839;BME280;30576;42.098;24.876;2023-07-09T05:08:08;99995.97;;;24.52;49.40
44839;BME280;30576;42.098;24.876;2023-07-09T05:10:33;99975.78;;;24.45;48.67
44839;BME280;30576;42.098;24.876;2023-07-09T05:12:59;99977.13;;;24.25;48.77
44839;BME280;30576;42.098;24.876;2023-07-09T05:15:24;100008.91;;;24.47;47.59
44839;BME280;30576;42.098;24.876;2023-07-09T05:17:50;99965.72;;;24.74;49.68
44839;BME280;30576;42.098;24.876;2023-07-09T05:20:16;99993.88;;;25.22;49.44
44839;BME280;30576;42.098;24.876;2023-07-09T05:22:41;99942.44;;;24.73;49.22
44839;BME280;30576;42.098;24.876;2023-07-09T05:25:07;99963.47;;;24.81;47.84
44839;BME280;30576;42.098;24.876;2023-07-09T05:27:33;100003.38;;;25.27;47.69
44839;BME280;30576;42.098;24.876;2023-07-09T05:29:58;99980.19;;;25.12;45.87
44839;BME280;30576;42.098;24.876;2023-07-09T05:32:25;100008.59;;;25.30;45.37
44839;BME280;30576;42.098;24.876;2023-07-09T05:34:51;99987.31;;;25.38;45.20
44839;BME280;30576;42.098;24.876;2023-07-09T05:37:16;99969.38;;;25.37;47.28
44839;BME280;30576;42.098;24.876;2023-07-09T05:39:42;99965.63;;;25.64;45.44
44839;BME280;30576;42.098;24.876;2023-07-09T05:42:07;99991.56;;;25.91;45.92
44839;BME280;30576;42.098;24.876;2023-07-09T05:44:33;99976.13;;;25.56;44.65
44839;BME280;30576;42.098;24.876;2023-07-09T05:46:58;99959.28;;;25.52;46.50
44839;BME280;30576;42.098;24.876;2023-07-09T05:49:24;99967.91;;;25.58;46.27
44839;BME280;30576;42.098;24.876;2023-07-09T05:51:49;99989.09;;;25.88;44.07
44839;BME280;30576;42.098;24.876;2023-07-09T05:54:15;99949.25;;;25.79;43.11
44839;BME280;30576;42.098;24.876;2023-07-09T05:56:40;99983.13;;;25.96;43.33
44839;BME280;30576;42.098;24.876;2023-07-09T05:59:06;99931.59;;;25.62;43.28
44839;BME280;30576;42.098;24.876;2023-07-09T06:01:31;99946.56;;;25.79;42.74
44839;BME280;30576;42.098;24.876;2023-07-09T06:03:57;99955.81;;;26.36;43.08
44839;BME280;30576;42.098;24.876;2023-07-09T06:06:23;99964.19;;;26.55;42.93
44839;BME280;30576;42.098;24.876;2023-07-09T06:08:49;99928.88;;;26.34;41.30
44839;BME280;30576;42.098;24.876;2023-07-09T06:11:15;99963.94;;;26.47;41.03
44839;BME280;30576;42.098;24.876;2023-07-09T06:13:42;99951.44;;;26.57;42.05
44839;BME280;30576;42.098;24.876;2023-07-09T06:16:08;99948.13;;;26.65;41.78
44839;BME280;30576;42.098;24.876;2023-07-09T06:18:34;99948.56;;;26.48;41.75
44839;BME280;30576;42.098;24.876;2023-07-09T06:21:01;99930.28;;;26.62;43.46
44839;BME280;30576;42.098;24.876;2023-07-09T06:23:28;99965.88;;;26.69;42.44
44839;BME280;30576;42.098;24.876;2023-07-09T06:25:54;99957.91;;;26.79;41.34
44839;BME280;30576;42.098;24.876;2023-07-09T06:28:22;99960.25;;;26.84;40.72
44839;BME280;30576;42.098;24.876;2023-07-09T06:30:48;99919.25;;;26.77;40.74
44839;BME280;30576;42.098;24.876;2023-07-09T06:33:15;99969.50;;;27.49;41.38
44839;BME280;30576;42.098;24.876;2023-07-09T06:35:52;99960.88;;;27.55;39.72
44839;BME280;30576;42.098;24.876;2023-07-09T06:38:19;99963.84;;;27.52;40.02
44839;BME280;30576;42.098;24.876;2023-07-09T06:40:44;99964.09;;;27.49;40.14
44839;BME280;30576;42.098;24.876;2023-07-09T06:43:11;99940.09;;;27.33;39.46
44839;BME280;30576;42.098;24.876;2023-07-09T06:45:37;99982.94;;;27.94;39.51
44839;BME280;30576;42.098;24.876;2023-07-09T06:48:03;99987.88;;;28.12;39.41
44839;BME280;30576;42.098;24.876;2023-07-09T06:50:29;99961.78;;;28.32;38.55
44839;BME280;30576;42.098;24.876;2023-07-09T06:52:57;99973.72;;;28.62;36.84
44839;BME280;30576;42.098;24.876;2023-07-09T06:55:23;99972.44;;;29.18;39.40
44839;BME280;30576;42.098;24.876;2023-07-09T06:57:48;99950.63;;;28.67;37.44
44839;BME280;30576;42.098;24.876;2023-07-09T07:00:14;99929.28;;;28.84;38.76
44839;BME280;30576;42.098;24.876;2023-07-09T07:02:40;99948.50;;;28.71;39.85
44839;BME280;30576;42.098;24.876;2023-07-09T07:05:06;99939.00;;;29.17;38.71
44839;BME280;30576;42.098;24.876;2023-07-09T07:07:31;99946.03;;;29.51;38.92
44839;BME280;30576;42.098;24.876;2023-07-09T07:09:57;99941.44;;;29.61;37.42
44839;BME280;30576;42.098;24.876;2023-07-09T07:12:29;99973.47;;;30.27;36.10
44839;BME280;30576;42.098;24.876;2023-07-09T07:14:55;99970.06;;;30.45;36.88
44839;BME280;30576;42.098;24.876;2023-07-09T07:17:21;99923.22;;;29.92;36.53
44839;BME280;30576;42.098;24.876;2023-07-09T07:19:47;99930.66;;;30.29;37.70
44839;BME280;30576;42.098;24.876;2023-07-09T07:22:13;99919.34;;;30.14;34.50
44839;BME280;30576;42.098;24.876;2023-07-09T07:24:39;99944.97;;;30.12;36.41
44839;BME280;30576;42.098;24.876;2023-07-09T07:27:04;99938.25;;;30.35;36.10
44839;BME280;30576;42.098;24.876;2023-07-09T07:29:30;99932.38;;;30.50;33.98
44839;BME280;30576;42.098;24.876;2023-07-09T07:31:55;99942.16;;;30.90;34.90
44839;BME280;30576;42.098;24.876;2023-07-09T07:34:21;99927.03;;;31.15;34.69
44839;BME280;30576;42.098;24.876;2023-07-09T07:36:49;99880.28;;;30.15;35.07
44839;BME280;30576;42.098;24.876;2023-07-09T07:39:15;99951.63;;;30.96;35.60
44839;BME280;30576;42.098;24.876;2023-07-09T07:41:40;99920.06;;;30.16;34.35
44839;BME280;30576;42.098;24.876;2023-07-09T07:44:06;99930.38;;;29.93;33.85
44839;BME280;30576;42.098;24.876;2023-07-09T07:46:33;99942.69;;;30.27;33.97
44839;BME280;30576;42.098;24.876;2023-07-09T07:48:58;99934.66;;;30.35;36.51
44839;BME280;30576;42.098;24.876;2023-07-09T07:51:25;99915.44;;;31.13;34.41
44839;BME280;30576;42.098;24.876;2023-07-09T07:53:50;99911.81;;;30.75;33.94
44839;BME280;30576;42.098;24.876;2023-07-09T07:56:16;99898.19;;;30.85;34.32
44839;BME280;30576;42.098;24.876;2023-07-09T07:58:41;99901.31;;;30.23;33.34
44839;BME280;30576;42.098;24.876;2023-07-09T08:01:07;99919.75;;;30.49;34.93
44839;BME280;30576;42.098;24.876;2023-07-09T08:03:32;99921.88;;;30.75;34.54
44839;BME280;30576;42.098;24.876;2023-07-09T08:05:57;99914.75;;;30.44;33.79
44839;BME280;30576;42.098;24.876;2023-07-09T08:08:23;99906.59;;;30.54;32.86
44839;BME280;30576;42.098;24.876;2023-07-09T08:11:00;99893.19;;;31.18;35.08
44839;BME280;30576;42.098;24.876;2023-07-09T08:13:25;99910.59;;;31.35;34.25
44839;BME280;30576;42.098;24.876;2023-07-09T08:15:51;99892.97;;;30.64;33.05
44839;BME280;30576;42.098;24.876;2023-07-09T08:18:16;99891.97;;;30.65;33.83
44839;BME280;30576;42.098;24.876;2023-07-09T08:20:45;99867.38;;;30.84;33.86
44839;BME280;30576;42.098;24.876;2023-07-09T08:23:10;99916.28;;;31.14;33.61
44839;BME280;30576;42.098;24.876;2023-07-09T08:25:36;99875.28;;;31.15;35.40
44839;BME280;30576;42.098;24.876;2023-07-09T08:28:01;99876.63;;;31.29;33.66
44839;BME280;30576;42.098;24.876;2023-07-09T08:30:27;99886.00;;;30.99;35.42
44839;BME280;30576;42.098;24.876;2023-07-09T08:32:52;99855.53;;;31.59;34.09
44839;BME280;30576;42.098;24.876;2023-07-09T08:35:18;99869.06;;;32.05;33.07
44839;BME280;30576;42.098;24.876;2023-07-09T08:37:43;99902.88;;;32.30;33.88
44839;BME280;30576;42.098;24.876;2023-07-09T08:40:14;99866.63;;;31.48;31.22
44839;BME280;30576;42.098;24.876;2023-07-09T08:42:43;99869.75;;;32.25;33.44
44839;BME280;30576;42.098;24.876;2023-07-09T08:45:24;99890.50;;;32.88;32.05
44839;BME280;30576;42.098;24.876;2023-07-09T08:50:32;99855.91;;;32.18;33.43
44839;BME280;30576;42.098;24.876;2023-07-09T08:53:01;99882.41;;;32.26;31.89
44839;BME280;30576;42.098;24.876;2023-07-09T08:55:29;99883.19;;;32.18;30.84
44839;BME280;30576;42.098;24.876;2023-07-09T08:58:19;99877.94;;;32.69;30.65
44839;BME280;30576;42.098;24.876;2023-07-09T09:00:57;99859.78;;;32.34;31.09
44839;BME280;30576;42.098;24.876;2023-07-09T09:03:30;99862.91;;;32.21;30.28
44839;BME280;30576;42.098;24.876;2023-07-09T09:05:57;99857.16;;;31.88;30.54
44839;BME280;30576;42.098;24.876;2023-07-09T09:11:14;99890.81;;;33.19;29.87
44839;BME280;30576;42.098;24.876;2023-07-09T09:13:40;99855.47;;;32.31;28.93
44839;BME280;30576;42.098;24.876;2023-07-09T09:16:28;99873.03;;;32.28;29.70
44839;BME280;30576;42.098;24.876;2023-07-09T09:18:58;99864.44;;;32.68;29.89
44839;BME280;30576;42.098;24.876;2023-07-09T09:21:35;99868.28;;;32.30;30.28
44839;BME280;30576;42.098;24.876;2023-07-09T09:24:14;99847.81;;;32.35;31.42
44839;BME280;30576;42.098;24.876;2023-07-09T09:26:43;99859.28;;;32.12;30.39
44839;BME280;30576;42.098;24.876;2023-07-09T09:29:15;99872.13;;;32.20;30.17
44839;BME280;30576;42.098;24.876;2023-07-09T09:31:43;99853.38;;;32.25;30.92
44839;BME280;30576;42.098;24.876;2023-07-09T09:34:17;99851.09;;;32.12;30.97
44839;BME280;30576;42.098;24.876;2023-07-09T09:36:44;99846.16;;;32.42;34.17
44839;BME280;30576;42.098;24.876;2023-07-09T09:39:10;99876.41;;;32.48;30.91
44839;BME280;30576;42.098;24.876;2023-07-09T09:41:37;99878.59;;;32.19;29.19
44839;BME280;30576;42.098;24.876;2023-07-09T09:44:03;99855.75;;;32.20;30.19
44839;BME280;30576;42.098;24.876;2023-07-09T09:46:31;99850.28;;;32.20;28.38
44839;BME280;30576;42.098;24.876;2023-07-09T09:49:02;99877.84;;;32.61;28.27
44839;BME280;30576;42.098;24.876;2023-07-09T09:51:29;99848.53;;;32.63;29.37
44839;BME280;30576;42.098;24.876;2023-07-09T09:54:00;99833.69;;;32.65;32.45
44839;BME280;30576;42.098;24.876;2023-07-09T09:56:33;99840.06;;;32.74;27.81
44839;BME280;30576;42.098;24.876;2023-07-09T09:58:59;99851.13;;;33.07;28.64
44839;BME280;30576;42.098;24.876;2023-07-09T10:01:35;99838.63;;;33.39;28.27
44839;BME280;30576;42.098;24.876;2023-07-09T10:04:04;99854.53;;;33.52;29.78
44839;BME280;30576;42.098;24.876;2023-07-09T10:06:39;99815.94;;;33.63;32.83
44839;BME280;30576;42.098;24.876;2023-07-09T10:11:44;99860.53;;;33.05;28.52
44839;BME280;30576;42.098;24.876;2023-07-09T10:14:38;99843.97;;;32.45;28.42
44839;BME280;30576;42.098;24.876;2023-07-09T10:33:44;99834.13;;;32.53;26.91
44839;BME280;30576;42.098;24.876;2023-07-09T10:36:20;99832.06;;;32.55;26.77
44839;BME280;30576;42.098;24.876;2023-07-09T10:41:14;99816.75;;;32.88;26.88
44839;BME280;30576;42.098;24.876;2023-07-09T10:43:47;99796.00;;;33.12;25.60
44839;BME280;30576;42.098;24.876;2023-07-09T10:46:21;99821.72;;;33.44;25.85
44839;BME280;30576;42.098;24.876;2023-07-09T10:48:51;99810.28;;;33.57;27.11
44839;BME280;30576;42.098;24.876;2023-07-09T10:51:31;99803.09;;;33.47;25.78
44839;BME280;30576;42.098;24.876;2023-07-09T10:56:40;99798.97;;;33.18;28.53
44839;BME280;30576;42.098;24.876;2023-07-09T11:01:42;99821.94;;;33.08;27.55
44839;BME280;30576;42.098;24.876;2023-07-09T11:06:49;99794.72;;;33.49;25.64
44839;BME280;30576;42.098;24.876;2023-07-09T11:09:26;99815.69;;;33.24;25.14
44839;BME280;30576;42.098;24.876;2023-07-09T11:11:56;99788.22;;;33.33;25.78
44839;BME280;30576;42.098;24.876;2023-07-09T11:14:30;99808.44;;;34.15;24.59
44839;BME280;30576;42.098;24.876;2023-07-09T11:16:58;99801.59;;;34.27;23.77
44839;BME280;30576;42.098;24.876;2023-07-09T11:19:26;99801.06;;;34.15;24.29
44839;BME280;30576;42.098;24.876;2023-07-09T11:24:54;99781.03;;;34.39;25.15
44839;BME280;30576;42.098;24.876;2023-07-09T11:27:30;99772.19;;;34.04;25.28
44839;BME280;30576;42.098;24.876;2023-07-09T11:30:15;99774.94;;;33.96;25.61
44839;BME280;30576;42.098;24.876;2023-07-09T11:32:47;99777.50;;;33.65;25.42
44839;BME280;30576;42.098;24.876;2023-07-09T11:35:23;99773.22;;;33.62;25.28
44839;BME280;30576;42.098;24.876;2023-07-09T11:37:50;99772.53;;;33.68;25.13
44839;BME280;30576;42.098;24.876;2023-07-09T11:40:16;99770.63;;;34.10;25.88
44839;BME280;30576;42.098;24.876;2023-07-09T11:42:52;99784.31;;;34.83;25.66
44839;BME280;30576;42.098;24.876;2023-07-09T11:45:37;99768.66;;;34.52;27.90
44839;BME280;30576;42.098;24.876;2023-07-09T11:50:51;99764.69;;;33.82;25.33
44839;BME280;30576;42.098;24.876;2023-07-09T11:53:34;99780.19;;;34.31;24.95
44839;BME280;30576;42.098;24.876;2023-07-09T11:56:02;99749.50;;;34.52;25.15
44839;BME280;30576;42.098;24.876;2023-07-09T11:58:27;99755.47;;;34.64;24.24
44839;BME280;30576;42.098;24.876;2023-07-09T12:00:58;99763.97;;;34.13;24.46
44839;BME280;30576;42.098;24.876;2023-07-09T12:03:35;99757.47;;;34.05;24.63
44839;BME280;30576;42.098;24.876;2023-07-09T12:06:04;99754.94;;;33.79;24.37
44839;BME280;30576;42.098;24.876;2023-07-09T12:08:37;99738.34;;;33.97;24.87
44839;BME280;30576;42.098;24.876;2023-07-09T12:11:04;99720.53;;;34.10;25.76
44839;BME280;30576;42.098;24.876;2023-07-09T12:13:39;99737.88;;;34.50;26.16
44839;BME280;30576;42.098;24.876;2023-07-09T12:16:20;99730.44;;;34.67;24.19
44839;BME280;30576;42.098;24.876;2023-07-09T12:18:46;99701.69;;;34.15;24.60
44839;BME280;30576;42.098;24.876;2023-07-09T12:21:11;99744.63;;;34.06;25.53
44839;BME280;30576;42.098;24.876;2023-07-09T12:23:39;99712.34;;;33.93;27.30
44839;BME280;30576;42.098;24.876;2023-07-09T12:26:05;99742.88;;;34.21;25.45
44839;BME280;30576;42.098;24.876;2023-07-09T12:28:32;99744.13;;;34.11;24.73
44839;BME280;30576;42.098;24.876;2023-07-09T12:30:58;99726.81;;;34.18;24.90
44839;BME280;30576;42.098;24.876;2023-07-09T12:33:25;99718.66;;;34.10;24.70
44839;BME280;30576;42.098;24.876;2023-07-09T12:36:04;99710.50;;;34.50;25.81
44839;BME280;30576;42.098;24.876;2023-07-09T12:38:33;99702.44;;;34.88;25.54
44839;BME280;30576;42.098;24.876;2023-07-09T12:41:06;99713.31;;;35.50;22.35
44839;BME280;30576;42.098;24.876;2023-07-09T12:43:39;99720.19;;;35.23;25.02
44839;BME280;30576;42.098;24.876;2023-07-09T12:46:05;99695.31;;;34.78;25.41
44839;BME280;30576;42.098;24.876;2023-07-09T12:48:31;99686.66;;;34.58;26.95
44839;BME280;30576;42.098;24.876;2023-07-09T12:50:58;99727.50;;;34.76;24.09
44839;BME280;30576;42.098;24.876;2023-07-09T12:53:26;99696.78;;;34.89;25.76
44839;BME280;30576;42.098;24.876;2023-07-09T12:55:55;99714.88;;;35.30;25.06
44839;BME280;30576;42.098;24.876;2023-07-09T12:58:25;99687.28;;;35.23;25.58
44839;BME280;30576;42.098;24.876;2023-07-09T13:00:54;99676.66;;;34.82;26.40
44839;BME280;30576;42.098;24.876;2023-07-09T13:03:23;99713.75;;;34.85;25.54
44839;BME280;30576;42.098;24.876;2023-07-09T13:05:55;99684.09;;;34.17;24.87
44839;BME280;30576;42.098;24.876;2023-07-09T13:08:23;99681.75;;;33.98;25.25
44839;BME280;30576;42.098;24.876;2023-07-09T13:10:49;99701.69;;;34.31;25.57
44839;BME280;30576;42.098;24.876;2023-07-09T13:13:19;99677.72;;;34.65;25.59
44839;BME280;30576;42.098;24.876;2023-07-09T13:15:57;99678.38;;;34.35;24.61
44839;BME280;30576;42.098;24.876;2023-07-09T13:18:26;99695.31;;;34.39;24.33
44839;BME280;30576;42.098;24.876;2023-07-09T13:20:54;99690.72;;;34.31;24.54
44839;BME280;30576;42.098;24.876;2023-07-09T13:23:23;99675.22;;;34.07;24.88
44839;BME280;30576;42.098;24.876;2023-07-09T13:25:49;99649.78;;;33.90;25.79
44839;BME280;30576;42.098;24.876;2023-07-09T13:28:32;99695.09;;;34.49;24.77
44839;BME280;30576;42.098;24.876;2023-07-09T13:31:11;99689.56;;;35.20;29.17
44839;BME280;30576;42.098;24.876;2023-07-09T13:33:38;99676.78;;;35.35;25.95
44839;BME280;30576;42.098;24.876;2023-07-09T13:36:04;99691.63;;;34.94;25.67